createdAt,value
2023-04-09T00:03:59.002Z,102182.53
2023-04-09T00:08:00.753Z,102187.94
2023-04-09T00:12:03.402Z,102189.81
2023-04-09T00:16:05.241Z,102187.84
2023-04-09T00:20:07.879Z,102181.84
2023-04-09T00:24:09.375Z,102186.81
2023-04-09T00:28:10.996Z,102187.41
2023-04-09T00:32:12.519Z,102185.22
2023-04-09T00:36:14.101Z,102182.53
2023-04-09T00:40:15.869Z,102180.91
2023-04-09T00:44:17.433Z,102180.84
2023-04-09T00:48:19.144Z,102183.91
2023-04-09T00:52:21.387Z,102181.78
2023-04-09T00:56:23.663Z,102181.50
2023-04-09T01:00:25.484Z,102175.19
2023-04-09T01:04:27.003Z,102176.03
2023-04-09T01:08:33.398Z,102179.00
2023-04-09T01:12:52.010Z,102179.28
2023-04-09T01:17:05.622Z,102181.25
2023-04-09T01:21:13.014Z,102188.09
2023-04-09T01:25:50.398Z,102181.56
2023-04-09T01:29:53.531Z,102176.63
2023-04-09T01:33:55.574Z,102181.81
2023-04-09T01:37:58.270Z,102181.53
2023-04-09T01:42:00.863Z,102182.91
2023-04-09T01:46:03.678Z,102184.84
2023-04-09T01:50:05.893Z,102178.25
2023-04-09T01:54:07.788Z,102178.53
2023-04-09T01:58:09.396Z,102187.59
2023-04-09T02:02:18.079Z,102181.53
2023-04-09T02:06:34.619Z,102188.69
2023-04-09T02:10:39.505Z,102189.75
2023-04-09T02:14:41.453Z,102194.13
2023-04-09T02:18:42.970Z,102197.38
2023-04-09T02:22:45.663Z,102195.19
2023-04-09T02:26:47.249Z,102194.03
2023-04-09T02:30:48.719Z,102198.94
2023-04-09T02:34:50.137Z,102198.66
2023-04-09T02:38:51.784Z,102195.69
2023-04-09T02:42:53.928Z,102194.88
2023-04-09T02:46:56.215Z,102185.53
2023-04-09T02:50:57.665Z,102179.47
2023-04-09T02:54:59.082Z,102186.31
2023-04-09T02:59:00.546Z,102186.53
2023-04-09T03:03:02.309Z,102184.03
2023-04-09T03:07:03.869Z,102175.84
2023-04-09T03:11:05.380Z,102178.00
2023-04-09T03:15:07.311Z,102172.78
2023-04-09T03:19:08.777Z,102176.88
2023-04-09T03:23:10.830Z,102169.03
2023-04-09T03:27:12.256Z,102175.41
2023-04-09T03:31:14.172Z,102170.75
2023-04-09T03:35:15.817Z,102168.34
2023-04-09T03:39:17.323Z,102164.84
2023-04-09T03:43:18.768Z,102161.50
2023-04-09T03:47:20.668Z,102162.41
2023-04-09T03:51:22.160Z,102164.34
2023-04-09T03:55:23.674Z,102164.78
2023-04-09T03:59:25.259Z,102163.16
2023-04-09T04:03:26.981Z,102172.75
2023-04-09T04:07:28.458Z,102181.16
2023-04-09T04:11:30.374Z,102177.84
2023-04-09T04:15:31.895Z,102179.84
2023-04-09T04:19:33.305Z,102177.91
2023-04-09T04:23:34.817Z,102177.84
2023-04-09T04:27:36.253Z,102174.09
2023-04-09T04:31:37.776Z,102174.69
2023-04-09T04:35:39.334Z,102177.16
2023-04-09T04:39:40.876Z,102188.84
2023-04-09T04:43:42.348Z,102191.09
2023-04-09T04:47:43.824Z,102187.47
2023-04-09T04:51:45.332Z,102195.16
2023-04-09T04:55:46.937Z,102201.22
2023-04-09T04:59:48.438Z,102207.25
2023-04-09T05:03:49.986Z,102221.44
2023-04-09T05:07:51.674Z,102219.47
2023-04-09T05:11:53.190Z,102226.41
2023-04-09T05:15:54.683Z,102221.16
2023-04-09T05:19:57.779Z,102232.03
2023-04-09T05:23:59.213Z,102231.56
2023-04-09T05:28:00.879Z,102224.75
2023-04-09T05:32:02.568Z,102229.56
2023-04-09T05:36:04.789Z,102222.41
2023-04-09T05:40:06.765Z,102226.84
2023-04-09T05:44:08.233Z,102227.69
2023-04-09T05:48:09.759Z,102228.47
2023-04-09T05:52:11.267Z,102231.75
2023-04-09T05:56:16.151Z,102223.63
2023-04-09T06:00:18.371Z,102225.84
2023-04-09T06:04:20.071Z,102231.28
2023-04-09T06:08:21.617Z,102235.22
2023-04-09T06:12:23.055Z,102230.03
2023-04-09T06:16:24.506Z,102224.31
2023-04-09T06:20:26.071Z,102224.03
2023-04-09T06:24:27.490Z,102228.66
2023-04-09T06:28:29.600Z,102228.91
2023-04-09T06:32:33.607Z,102218.72
2023-04-09T06:36:40.503Z,102221.13
2023-04-09T06:40:42.528Z,102227.34
2023-04-09T06:44:43.973Z,102232.63
2023-04-09T06:48:46.414Z,102225.03
2023-04-09T06:52:48.241Z,102227.06
2023-04-09T06:56:49.730Z,102232.50
2023-04-09T07:00:51.187Z,102237.84
2023-04-09T07:04:52.875Z,102236.78
2023-04-09T07:08:54.602Z,102230.94
2023-04-09T07:12:56.507Z,102231.13
2023-04-09T07:16:57.943Z,102240.94
2023-04-09T07:20:59.497Z,102250.13
2023-04-09T07:25:01.078Z,102238.00
2023-04-09T07:29:03.771Z,102245.72
2023-04-09T07:33:05.335Z,102245.91
2023-04-09T07:37:06.866Z,102237.16
2023-04-09T07:41:11.055Z,102237.19
2023-04-09T07:45:12.627Z,102240.78
2023-04-09T07:49:14.277Z,102239.19
2023-04-09T07:53:16.497Z,102240.31
2023-04-09T07:57:18.005Z,102245.97
2023-04-09T08:01:24.635Z,102251.06
2023-04-09T08:05:26.283Z,102246.59
2023-04-09T08:09:27.694Z,102243.50
2023-04-09T08:13:29.111Z,102245.03
2023-04-09T08:17:31.232Z,102248.63
2023-04-09T08:21:32.862Z,102254.75
2023-04-09T08:25:34.323Z,102250.47
2023-04-09T08:29:35.980Z,102257.00
2023-04-09T08:33:37.870Z,102256.81
2023-04-09T08:37:39.560Z,102266.25
2023-04-09T08:41:46.225Z,102263.63
2023-04-09T08:45:51.375Z,102272.25
2023-04-09T08:49:52.912Z,102271.41
2023-04-09T08:54:03.913Z,102259.66
2023-04-09T08:58:10.717Z,102257.56
2023-04-09T09:02:12.670Z,102257.78
2023-04-09T09:06:21.902Z,102250.72
2023-04-09T09:10:37.415Z,102243.47
2023-04-09T09:14:38.871Z,102254.28
2023-04-09T09:18:42.775Z,102242.94
2023-04-09T09:22:54.863Z,102249.84
2023-04-09T09:26:59.549Z,102243.81
2023-04-09T09:31:11.089Z,102240.88
2023-04-09T09:35:12.712Z,102237.25
2023-04-09T09:39:17.243Z,102240.44
2023-04-09T09:43:18.697Z,102239.38
2023-04-09T09:47:21.823Z,102227.66
2023-04-09T09:51:27.742Z,102225.56
2023-04-09T09:55:32.275Z,102226.22
2023-04-09T09:59:39.556Z,102218.13
2023-04-09T10:03:44.191Z,102217.91
2023-04-09T10:07:46.507Z,102216.50
2023-04-09T10:11:48.832Z,102208.38
2023-04-09T10:15:52.043Z,102207.56
2023-04-09T10:20:11.611Z,102207.56
2023-04-09T10:24:13.716Z,102213.91
2023-04-09T10:28:17.547Z,102219.13
2023-04-09T10:32:26.486Z,102216.41
2023-04-09T10:36:31.537Z,102219.19
2023-04-09T10:40:33.064Z,102219.97
2023-04-09T10:44:38.059Z,102219.13
2023-04-09T10:48:39.512Z,102216.94
2023-04-09T10:52:42.344Z,102219.84
2023-04-09T10:57:16.444Z,102216.38
2023-04-09T11:01:24.264Z,102218.66
2023-04-09T11:05:28.384Z,102219.38
2023-04-09T11:09:29.799Z,102223.22
2023-04-09T11:13:32.502Z,102213.97
2023-04-09T11:17:36.969Z,102210.66
2023-04-09T11:21:46.136Z,102212.19
2023-04-09T11:25:51.690Z,102203.03
2023-04-09T11:29:56.508Z,102212.34
2023-04-09T11:33:57.948Z,102196.44
2023-04-09T11:37:59.471Z,102194.59
2023-04-09T11:42:01.853Z,102194.38
2023-04-09T11:46:04.614Z,102190.06
2023-04-09T11:50:07.955Z,102184.66
2023-04-09T11:54:11.629Z,102171.53
2023-04-09T11:58:13.286Z,102179.03
2023-04-09T12:02:19.227Z,102187.31
2023-04-09T12:06:25.100Z,102182.53
2023-04-09T12:10:32.188Z,102181.72
2023-04-09T12:14:34.927Z,102193.63
2023-04-09T12:18:38.155Z,102178.97
2023-04-09T12:22:41.248Z,102188.06
2023-04-09T12:26:43.550Z,102188.31
2023-04-09T12:30:45.350Z,102192.78
2023-04-09T12:34:47.401Z,102185.59
2023-04-09T12:38:48.871Z,102182.56
2023-04-09T12:42:50.372Z,102179.78
2023-04-09T12:46:51.898Z,102182.81
2023-04-09T12:50:53.489Z,102176.78
2023-04-09T12:54:55.072Z,102173.97
2023-04-09T12:58:56.793Z,102170.44
2023-04-09T13:02:58.410Z,102173.91
2023-04-09T13:06:59.946Z,102171.28
2023-04-09T13:11:01.623Z,102171.78
2023-04-09T13:15:03.874Z,102165.44
2023-04-09T13:19:06.807Z,102162.94
2023-04-09T13:23:08.292Z,102166.78
2023-04-09T13:27:11.193Z,102154.22
2023-04-09T13:31:12.857Z,102153.91
2023-04-09T13:35:14.544Z,102147.25
2023-04-09T13:39:16.104Z,102144.13
2023-04-09T13:43:17.635Z,102137.63
2023-04-09T13:47:19.445Z,102147.44
2023-04-09T13:51:24.074Z,102132.06
2023-04-09T13:55:25.789Z,102131.59
2023-04-09T13:59:27.307Z,102131.59
2023-04-09T14:03:28.793Z,102120.78
2023-04-09T14:07:30.802Z,102120.34
2023-04-09T14:11:32.347Z,102113.38
2023-04-09T14:15:34.899Z,102108.97
2023-04-09T14:19:36.342Z,102115.72
2023-04-09T14:23:39.490Z,102102.75
2023-04-09T14:27:41.111Z,102100.09
2023-04-09T14:31:42.806Z,102093.06
2023-04-09T14:35:44.511Z,102089.47
2023-04-09T14:39:46.008Z,102082.56
2023-04-09T14:43:47.477Z,102085.09
2023-04-09T14:47:48.991Z,102086.13
2023-04-09T14:51:50.560Z,102077.75
2023-04-09T14:55:51.978Z,102077.31
2023-04-09T14:59:53.402Z,102079.66
2023-04-09T15:03:55.233Z,102079.06
2023-04-09T15:07:57.238Z,102067.34
2023-04-09T15:11:58.695Z,102079.41
2023-04-09T15:16:00.459Z,102066.81
2023-04-09T15:20:02.046Z,102076.28
2023-04-09T15:24:03.741Z,102069.81
2023-04-09T15:28:06.364Z,102070.19
2023-04-09T15:32:07.890Z,102073.72
2023-04-09T15:36:09.484Z,102071.50
2023-04-09T15:40:11.516Z,102067.91
2023-04-09T15:44:12.941Z,102072.38
2023-04-09T15:48:14.535Z,102063.56
2023-04-09T15:52:16.088Z,102063.75
2023-04-09T15:56:17.532Z,102071.91
2023-04-09T16:00:19.049Z,102066.41
2023-04-09T16:04:20.683Z,102064.34
2023-04-09T16:08:22.098Z,102063.19
2023-04-09T16:12:24.753Z,102062.63
2023-04-09T16:16:26.258Z,102069.16
2023-04-09T16:20:29.289Z,102069.59
2023-04-09T16:24:31.622Z,102063.91
2023-04-09T16:28:33.166Z,102071.53
2023-04-09T16:32:34.670Z,102071.41
2023-04-09T16:36:38.736Z,102071.72
2023-04-09T16:40:40.477Z,102076.09
2023-04-09T16:44:42.093Z,102065.72
2023-04-09T16:48:43.574Z,102067.72
2023-04-09T16:52:45.062Z,102065.69
2023-04-09T16:56:48.384Z,102068.38
2023-04-09T17:00:51.874Z,102069.84
2023-04-09T17:04:53.945Z,102066.44
2023-04-09T17:08:55.430Z,102065.16
2023-04-09T17:12:56.849Z,102069.63
2023-04-09T17:16:58.339Z,102079.38
2023-04-09T17:20:59.934Z,102076.84
2023-04-09T17:25:01.895Z,102079.75
2023-04-09T17:29:03.423Z,102079.13
2023-04-09T17:33:04.934Z,102088.72
2023-04-09T17:37:06.462Z,102089.78
2023-04-09T17:41:07.885Z,102091.41
2023-04-09T17:45:09.848Z,102087.22
2023-04-09T17:49:11.865Z,102078.56
2023-04-09T17:53:13.406Z,102084.13
2023-04-09T17:57:15.416Z,102082.00
2023-04-09T18:01:17.029Z,102087.34
2023-04-09T18:05:18.613Z,102094.41
2023-04-09T18:09:20.343Z,102089.38
2023-04-09T18:13:22.929Z,102090.34
2023-04-09T18:17:26.208Z,102093.34
2023-04-09T18:21:28.535Z,102090.28
2023-04-09T18:25:30.240Z,102081.44
2023-04-09T18:29:31.930Z,102082.59
2023-04-09T18:33:34.122Z,102089.75
2023-04-09T18:37:35.626Z,102092.03
2023-04-09T18:41:37.123Z,102103.94
2023-04-09T18:45:42.012Z,102114.06
2023-04-09T18:49:43.532Z,102111.59
2023-04-09T18:53:45.219Z,102114.78
2023-04-09T18:57:47.203Z,102116.31
2023-04-09T19:01:48.796Z,102113.91
2023-04-09T19:05:51.314Z,102116.59
2023-04-09T19:09:52.794Z,102108.91
2023-04-09T19:13:54.242Z,102110.44
2023-04-09T19:17:56.827Z,102120.72
2023-04-09T19:21:58.634Z,102115.19
2023-04-09T19:26:01.118Z,102119.28
2023-04-09T19:30:04.705Z,102116.34
2023-04-09T19:34:06.389Z,102113.22
2023-04-09T19:38:08.193Z,102111.63
2023-04-09T19:42:09.841Z,102118.63
2023-04-09T19:46:11.463Z,102110.50
2023-04-09T19:50:13.354Z,102120.28
2023-04-09T19:54:16.530Z,102120.22
2023-04-09T19:58:17.991Z,102112.44
2023-04-09T20:02:19.831Z,102120.06
2023-04-09T20:06:21.902Z,102121.78
2023-04-09T20:10:23.427Z,102126.88
2023-04-09T20:14:25.053Z,102128.34
2023-04-09T20:18:26.653Z,102136.50
2023-04-09T20:22:28.974Z,102134.97
2023-04-09T20:26:30.978Z,102141.00
2023-04-09T20:30:32.583Z,102135.31
2023-04-09T20:34:34.046Z,102137.03
2023-04-09T20:38:35.577Z,102133.31
2023-04-09T20:42:38.428Z,102131.34
2023-04-09T20:46:39.912Z,102132.28
2023-04-09T20:50:42.062Z,102127.25
2023-04-09T20:54:43.511Z,102129.28
2023-04-09T20:58:45.083Z,102125.06
2023-04-09T21:02:46.664Z,102118.00
2023-04-09T21:06:48.266Z,102111.97
2023-04-09T21:10:49.665Z,102117.88
2023-04-09T21:14:51.094Z,102112.06
2023-04-09T21:18:53.089Z,102117.41
2023-04-09T21:22:54.864Z,102119.69
2023-04-09T21:26:56.814Z,102114.81
2023-04-09T21:30:58.451Z,102109.34
2023-04-09T21:35:00.025Z,102118.09
2023-04-09T21:39:01.580Z,102108.78
2023-04-09T21:43:03.174Z,102098.78
2023-04-09T21:47:07.529Z,102098.19
2023-04-09T21:51:10.548Z,102102.56
2023-04-09T21:55:12.017Z,102104.97
2023-04-09T21:59:13.440Z,102110.03
2023-04-09T22:03:15.864Z,102113.59
2023-04-09T22:07:17.435Z,102116.97
2023-04-09T22:11:19.204Z,102123.16
2023-04-09T22:15:21.878Z,102115.69
2023-04-09T22:19:26.073Z,102118.69
2023-04-09T22:23:27.573Z,102125.25
2023-04-09T22:27:29.028Z,102127.09
2023-04-09T22:31:30.469Z,102124.00
2023-04-09T22:35:32.113Z,102123.84
2023-04-09T22:39:33.615Z,102118.19
2023-04-09T22:43:35.071Z,102125.22
2023-04-09T22:47:37.204Z,102120.09
2023-04-09T22:51:41.383Z,102125.59
2023-04-09T22:55:43.264Z,102141.25
2023-04-09T22:59:44.763Z,102137.78
2023-04-09T23:03:46.429Z,102135.63
2023-04-09T23:07:48.150Z,102127.81
2023-04-09T23:11:49.624Z,102128.19
2023-04-09T23:15:51.137Z,102122.09
2023-04-09T23:19:52.691Z,102125.63
2023-04-09T23:23:54.259Z,102116.63
2023-04-09T23:27:55.882Z,102119.25
2023-04-09T23:31:57.347Z,102113.69
2023-04-09T23:35:58.798Z,102118.06
2023-04-09T23:40:00.345Z,102116.47
2023-04-09T23:44:01.893Z,102122.53
2023-04-09T23:48:07.281Z,102109.19
2023-04-09T23:52:08.783Z,102114.41
2023-04-09T23:56:10.210Z,102116.25
